createdAt,value
2022-08-04T00:00:44.760Z,20.26
2022-08-04T00:03:28.746Z,20.26
2022-08-04T00:06:14.183Z,20.33
2022-08-04T00:08:58.394Z,20.34
2022-08-04T00:11:29.305Z,20.36
2022-08-04T00:14:04.044Z,20.43
2022-08-04T00:16:37.747Z,20.53
2022-08-04T00:19:25.093Z,20.80
2022-08-04T00:21:57.367Z,21.05
2022-08-04T00:24:24.369Z,21.16
2022-08-04T00:26:53.992Z,21.22
2022-08-04T00:29:23.044Z,21.17
2022-08-04T00:31:54.759Z,21.02
2022-08-04T00:34:29.493Z,20.72
2022-08-04T00:37:00.124Z,20.53
2022-08-04T00:39:28.291Z,20.35
2022-08-04T00:42:17.694Z,20.26
2022-08-04T00:44:44.392Z,20.03
2022-08-04T00:47:29.428Z,19.77
2022-08-04T00:50:09.417Z,19.61
2022-08-04T00:52:41.568Z,19.56
2022-08-04T00:55:52.627Z,19.53
2022-08-04T00:58:19.277Z,19.54
2022-08-04T01:00:55.132Z,19.52
2022-08-04T01:03:34.392Z,19.46
2022-08-04T01:06:36.202Z,19.36
2022-08-04T01:09:27.177Z,19.33
2022-08-04T01:12:07.216Z,19.31
2022-08-04T01:15:18.047Z,19.23
2022-08-04T01:18:08.055Z,19.13
2022-08-04T01:21:21.723Z,19.17
2022-08-04T01:24:16.422Z,19.21
2022-08-04T01:27:04.123Z,19.23
2022-08-04T01:29:46.669Z,19.26
2022-08-04T01:32:20.946Z,19.24
2022-08-04T01:35:02.573Z,19.16
2022-08-04T01:37:41.420Z,19.19
2022-08-04T01:40:08.854Z,19.17
2022-08-04T01:42:36.995Z,19.17
2022-08-04T01:45:06.960Z,19.18
2022-08-04T01:47:36.685Z,19.18
2022-08-04T01:50:12.805Z,19.20
2022-08-04T01:52:42.267Z,19.22
2022-08-04T01:55:12.096Z,19.24
2022-08-04T01:57:46.841Z,19.21
2022-08-04T02:00:16.487Z,19.16
2022-08-04T02:02:45.040Z,19.09
2022-08-04T02:05:14.769Z,18.96
2022-08-04T02:07:56.610Z,18.86
2022-08-04T02:10:34.711Z,18.77
2022-08-04T02:13:10.837Z,18.74
2022-08-04T02:15:58.559Z,18.70
2022-08-04T02:18:33.327Z,18.58
2022-08-04T02:21:04.260Z,18.59
2022-08-04T02:23:34.779Z,18.58
2022-08-04T02:26:04.374Z,18.53
2022-08-04T02:28:47.054Z,18.50
2022-08-04T02:31:29.069Z,18.58
2022-08-04T02:34:08.519Z,18.55
2022-08-04T02:36:41.104Z,18.46
2022-08-04T02:39:12.241Z,18.45
2022-08-04T02:41:42.915Z,18.41
2022-08-04T02:44:10.531Z,18.33
2022-08-04T02:46:38.994Z,18.36
2022-08-04T02:49:08.311Z,18.39
2022-08-04T02:51:42.163Z,18.28
2022-08-04T02:54:09.282Z,18.26
2022-08-04T02:56:38.706Z,18.21
2022-08-04T02:59:07.229Z,18.23
2022-08-04T03:01:35.355Z,18.22
2022-08-04T03:04:27.325Z,18.22
2022-08-04T03:07:17.955Z,18.22
2022-08-04T03:09:47.514Z,18.28
2022-08-04T03:12:17.171Z,18.26
2022-08-04T03:15:17.266Z,18.21
2022-08-04T03:18:07.228Z,18.10
2022-08-04T03:21:14.011Z,17.94
2022-08-04T03:24:22.490Z,17.91
2022-08-04T03:27:07.995Z,18.02
2022-08-04T03:30:05.697Z,18.12
2022-08-04T03:32:41.475Z,18.19
2022-08-04T03:35:33.138Z,18.19
2022-08-04T03:38:37.259Z,18.10
2022-08-04T03:41:51.693Z,18.12
2022-08-04T03:44:50.911Z,18.18
2022-08-04T03:47:45.070Z,18.12
2022-08-04T03:50:24.130Z,18.02
2022-08-04T03:53:29.146Z,17.96
2022-08-04T03:56:30.111Z,17.93
2022-08-04T03:59:21.220Z,17.93
2022-08-04T04:02:16.672Z,17.92
2022-08-04T04:04:52.498Z,17.89
2022-08-04T04:08:01.902Z,17.80
2022-08-04T04:11:10.303Z,17.82
2022-08-04T04:14:05.407Z,17.85
2022-08-04T04:16:44.027Z,17.91
2022-08-04T04:19:36.830Z,17.99
2022-08-04T04:22:09.512Z,18.01
2022-08-04T04:24:39.631Z,18.06
2022-08-04T04:27:22.933Z,18.08
2022-08-04T04:30:09.363Z,18.05
2022-08-04T04:33:09.069Z,18.02
2022-08-04T04:35:42.098Z,18.00
2022-08-04T04:38:27.468Z,18.06
2022-08-04T04:41:10.526Z,18.12
2022-08-04T04:43:51.580Z,18.18
2022-08-04T04:46:40.894Z,18.23
2022-08-04T04:49:31.402Z,18.29
2022-08-04T04:52:24.168Z,18.33
2022-08-04T04:55:16.213Z,18.46
2022-08-04T04:57:53.791Z,18.54
2022-08-04T05:00:25.299Z,18.57
2022-08-04T05:03:13.861Z,18.72
2022-08-04T05:06:09.899Z,18.71
2022-08-04T05:08:54.392Z,18.76
2022-08-04T05:11:39.602Z,18.87
2022-08-04T05:14:36.108Z,18.97
2022-08-04T05:17:15.672Z,19.09
2022-08-04T05:19:42.313Z,19.23
2022-08-04T05:22:14.815Z,19.35
2022-08-04T05:24:46.851Z,19.51
2022-08-04T05:27:22.914Z,19.67
2022-08-04T05:30:03.240Z,19.81
2022-08-04T05:32:37.454Z,19.93
2022-08-04T05:35:09.994Z,20.13
2022-08-04T05:37:39.387Z,20.36
2022-08-04T05:40:07.576Z,20.61
2022-08-04T05:42:38.291Z,20.87
2022-08-04T05:45:07.922Z,21.09
2022-08-04T05:47:35.812Z,21.19
2022-08-04T05:50:04.839Z,21.35
2022-08-04T05:52:33.010Z,21.51
2022-08-04T05:55:01.698Z,21.63
2022-08-04T05:57:29.472Z,21.80
2022-08-04T05:59:59.006Z,22.03
2022-08-04T06:02:28.480Z,22.18
2022-08-04T06:04:56.320Z,22.30
2022-08-04T06:07:23.225Z,22.41
2022-08-04T06:09:50.022Z,22.55
2022-08-04T06:12:31.095Z,22.62
2022-08-04T06:15:00.162Z,22.71
2022-08-04T06:19:27.599Z,22.93
2022-08-04T06:20:34.587Z,23.03
2022-08-04T06:23:06.108Z,22.84
2022-08-04T06:25:36.906Z,22.93
2022-08-04T06:28:06.536Z,22.97
2022-08-04T06:30:34.469Z,23.05
2022-08-04T06:33:05.145Z,23.06
2022-08-04T06:35:33.233Z,23.39
2022-08-04T06:38:01.746Z,23.72
2022-08-04T06:40:32.301Z,23.98
2022-08-04T06:43:02.963Z,24.10
2022-08-04T06:45:31.198Z,24.27
2022-08-04T06:48:00.069Z,24.56
2022-08-04T06:51:29.344Z,24.54
2022-08-04T06:53:14.319Z,24.58
2022-08-04T06:55:43.362Z,24.57
2022-08-04T06:58:11.004Z,24.50
2022-08-04T07:00:39.148Z,24.56
2022-08-04T07:03:07.227Z,24.65
2022-08-04T07:05:36.010Z,24.51
2022-08-04T07:08:02.995Z,24.59
2022-08-04T07:10:30.853Z,25.06
2022-08-04T07:12:58.734Z,25.13
2022-08-04T07:15:27.011Z,25.09
2022-08-04T07:17:55.023Z,25.26
2022-08-04T07:20:35.976Z,25.43
2022-08-04T07:23:07.270Z,25.70
2022-08-04T07:25:57.245Z,25.81
2022-08-04T07:28:27.512Z,25.83
2022-08-04T07:30:55.178Z,25.78
2022-08-04T07:33:23.537Z,26.00
2022-08-04T07:36:05.791Z,26.29
2022-08-04T07:38:51.454Z,26.59
2022-08-04T07:41:38.323Z,26.48
2022-08-04T07:44:05.631Z,26.49
2022-08-04T07:46:32.576Z,26.47
2022-08-04T07:49:03.268Z,26.74
2022-08-04T07:51:31.576Z,26.74
2022-08-04T07:54:00.415Z,27.03
2022-08-04T07:56:28.524Z,26.97
2022-08-04T07:58:55.887Z,26.80
2022-08-04T08:01:26.972Z,27.08
2022-08-04T08:03:56.325Z,27.37
2022-08-04T08:06:30.960Z,27.46
2022-08-04T08:09:12.580Z,27.61
2022-08-04T08:12:38.606Z,27.57
2022-08-04T08:14:35.531Z,27.59
2022-08-04T08:17:03.322Z,27.74
2022-08-04T08:19:31.072Z,27.98
2022-08-04T08:22:00.569Z,27.85
2022-08-04T08:24:34.857Z,27.89
2022-08-04T08:27:04.385Z,27.84
2022-08-04T08:29:33.883Z,28.05
2022-08-04T08:32:07.256Z,28.42
2022-08-04T08:34:36.080Z,28.67
2022-08-04T08:37:14.939Z,28.66
2022-08-04T08:39:53.506Z,28.86
2022-08-04T08:42:39.100Z,28.59
2022-08-04T08:45:27.138Z,28.71
2022-08-04T08:48:35.523Z,28.65
2022-08-04T08:51:22.540Z,28.99
2022-08-04T08:54:13.630Z,29.52
2022-08-04T08:56:52.260Z,29.68
2022-08-04T08:59:22.451Z,29.53
2022-08-04T09:02:17.163Z,29.84
2022-08-04T09:04:57.539Z,30.28
2022-08-04T09:07:51.902Z,30.44
2022-08-04T09:10:49.027Z,30.45
2022-08-04T09:13:26.766Z,30.46
2022-08-04T09:16:11.854Z,30.89
2022-08-04T09:18:55.267Z,30.85
2022-08-04T09:21:34.007Z,31.28
2022-08-04T09:24:36.397Z,31.31
2022-08-04T09:27:03.691Z,31.34
2022-08-04T09:29:43.339Z,31.47
2022-08-04T09:32:33.531Z,31.45
2022-08-04T09:35:09.629Z,31.57
2022-08-04T09:37:54.796Z,31.65
2022-08-04T09:40:31.382Z,31.92
2022-08-04T09:43:23.499Z,31.72
2022-08-04T09:46:04.267Z,31.76
2022-08-04T09:48:55.595Z,31.85
2022-08-04T09:51:58.695Z,32.12
2022-08-04T09:54:39.719Z,32.61
2022-08-04T09:57:21.683Z,32.92
2022-08-04T09:59:59.185Z,33.12
2022-08-04T10:02:35.090Z,32.79
2022-08-04T10:05:05.266Z,32.98
2022-08-04T10:08:04.772Z,32.76
2022-08-04T10:10:46.268Z,32.89
2022-08-04T10:13:26.090Z,33.49
2022-08-04T10:16:14.421Z,33.65
2022-08-04T10:18:44.414Z,33.60
2022-08-04T10:21:19.345Z,33.57
2022-08-04T10:24:00.117Z,33.28
2022-08-04T10:26:27.231Z,33.26
2022-08-04T10:29:16.503Z,33.48
2022-08-04T10:31:49.393Z,33.73
2022-08-04T10:34:24.973Z,33.97
2022-08-04T10:36:59.234Z,33.69
2022-08-04T10:39:42.227Z,33.52
2022-08-04T10:42:10.454Z,33.51
2022-08-04T10:45:17.941Z,33.66
2022-08-04T10:47:54.513Z,33.56
2022-08-04T10:50:25.405Z,33.80
2022-08-04T10:53:03.196Z,34.07
2022-08-04T10:56:07.718Z,34.23
2022-08-04T10:58:48.058Z,34.54
2022-08-04T11:02:01.740Z,34.88
2022-08-04T11:04:40.870Z,35.13
2022-08-04T11:07:09.344Z,34.81
2022-08-04T11:09:37.083Z,34.76
2022-08-04T11:12:16.362Z,34.32
2022-08-04T11:14:49.397Z,34.12
2022-08-04T11:17:26.261Z,34.10
2022-08-04T11:20:32.217Z,33.99
2022-08-04T11:23:04.507Z,34.31
2022-08-04T11:25:55.854Z,34.73
2022-08-04T11:28:33.271Z,34.73
2022-08-04T11:31:12.331Z,35.20
2022-08-04T11:34:04.398Z,35.45
2022-08-04T11:36:44.380Z,35.34
2022-08-04T11:39:24.442Z,35.42
2022-08-04T11:42:15.464Z,35.50
2022-08-04T11:44:48.015Z,35.57
2022-08-04T11:47:47.705Z,35.67
2022-08-04T11:50:35.003Z,35.48
2022-08-04T11:53:03.639Z,34.95
2022-08-04T11:55:32.668Z,34.52
2022-08-04T11:58:21.291Z,34.69
2022-08-04T12:00:59.511Z,35.07
2022-08-04T12:04:03.179Z,35.16
2022-08-04T12:06:57.005Z,34.95
2022-08-04T12:09:48.864Z,34.94
2022-08-04T12:12:52.276Z,35.28
2022-08-04T12:15:51.914Z,35.31
2022-08-04T12:18:27.837Z,35.49
2022-08-04T12:21:12.563Z,35.34
2022-08-04T12:23:43.893Z,35.44
2022-08-04T12:26:32.671Z,35.28
2022-08-04T12:29:10.571Z,34.95
2022-08-04T12:31:46.951Z,35.03
2022-08-04T12:34:21.308Z,35.31
2022-08-04T12:37:09.688Z,35.58
2022-08-04T12:40:28.980Z,35.63
2022-08-04T12:42:42.143Z,34.97
2022-08-04T12:45:26.329Z,35.32
2022-08-04T12:47:56.681Z,35.03
2022-08-04T12:50:24.396Z,34.82
2022-08-04T12:53:04.106Z,34.90
2022-08-04T12:55:34.396Z,35.27
2022-08-04T12:58:03.964Z,35.57
2022-08-04T13:00:41.251Z,35.17
2022-08-04T13:03:17.348Z,35.35
2022-08-04T13:05:45.429Z,35.32
2022-08-04T13:08:13.435Z,35.04
2022-08-04T13:10:46.977Z,34.78
2022-08-04T13:13:24.377Z,35.19
2022-08-04T13:15:57.623Z,35.69
2022-08-04T13:18:30.023Z,35.50
2022-08-04T13:21:20.814Z,35.59
2022-08-04T13:24:20.281Z,35.54
2022-08-04T13:27:09.059Z,35.36
2022-08-04T13:29:59.006Z,35.20
2022-08-04T13:32:30.643Z,35.34
2022-08-04T13:35:00.770Z,35.41
2022-08-04T13:37:34.985Z,34.76
2022-08-04T13:40:05.087Z,34.20
2022-08-04T13:42:35.762Z,33.84
2022-08-04T13:45:05.980Z,33.71
2022-08-04T13:47:37.277Z,33.56
2022-08-04T13:50:27.188Z,33.13
2022-08-04T13:52:57.177Z,33.18
2022-08-04T13:55:27.358Z,33.34
2022-08-04T13:58:14.325Z,33.55
2022-08-04T14:00:49.503Z,33.67
2022-08-04T14:03:27.166Z,34.15
2022-08-04T14:06:14.198Z,34.30
2022-08-04T14:08:48.488Z,34.22
2022-08-04T14:12:10.703Z,34.62
2022-08-04T14:14:19.380Z,34.40
2022-08-04T14:16:55.979Z,34.02
2022-08-04T14:19:24.257Z,33.92
2022-08-04T14:21:53.442Z,33.97
2022-08-04T14:24:27.002Z,33.71
2022-08-04T14:27:00.550Z,33.66
2022-08-04T14:29:37.667Z,33.85
2022-08-04T14:32:12.633Z,34.34
2022-08-04T14:34:45.155Z,34.51
2022-08-04T14:37:18.561Z,34.45
2022-08-04T14:40:08.020Z,34.57
2022-08-04T14:42:55.504Z,34.77
2022-08-04T14:45:35.483Z,34.61
2022-08-04T14:48:07.547Z,34.33
2022-08-04T14:50:35.680Z,34.27
2022-08-04T14:53:11.662Z,34.44
2022-08-04T14:55:42.827Z,34.35
2022-08-04T14:58:36.227Z,34.13
2022-08-04T15:01:10.192Z,33.81
2022-08-04T15:03:49.956Z,33.80
2022-08-04T15:06:26.053Z,33.88
2022-08-04T15:08:54.716Z,33.94
2022-08-04T15:11:24.295Z,33.98
2022-08-04T15:13:56.319Z,33.71
2022-08-04T15:16:24.852Z,33.60
2022-08-04T15:18:52.767Z,33.74
2022-08-04T15:21:22.779Z,33.69
2022-08-04T15:23:50.850Z,33.71
2022-08-04T15:26:44.605Z,33.81
2022-08-04T15:29:16.850Z,33.72
2022-08-04T15:32:05.632Z,33.62
2022-08-04T15:35:02.869Z,33.46
2022-08-04T15:38:02.484Z,33.23
2022-08-04T15:40:38.763Z,33.22
2022-08-04T15:43:21.265Z,33.15
2022-08-04T15:46:30.759Z,33.01
2022-08-04T15:48:39.807Z,32.85
2022-08-04T15:51:14.188Z,32.76
2022-08-04T15:54:02.747Z,32.73
2022-08-04T15:56:28.285Z,32.67
2022-08-04T15:58:56.972Z,32.67
2022-08-04T16:01:24.266Z,32.85
2022-08-04T16:03:57.855Z,32.96
2022-08-04T16:06:29.394Z,33.00
2022-08-04T16:09:02.651Z,32.92
2022-08-04T16:11:31.019Z,32.86
2022-08-04T16:13:58.506Z,32.79
2022-08-04T16:16:37.454Z,32.75
2022-08-04T16:19:06.385Z,32.71
2022-08-04T16:21:35.680Z,32.62
2022-08-04T16:24:33.438Z,32.62
2022-08-04T16:27:01.741Z,32.64
2022-08-04T16:29:30.553Z,32.64
2022-08-04T16:32:06.960Z,32.53
2022-08-04T16:34:55.594Z,32.55
2022-08-04T16:37:42.878Z,32.58
2022-08-04T16:40:27.403Z,32.46
2022-08-04T16:43:03.323Z,32.40
2022-08-04T16:45:45.401Z,32.40
2022-08-04T16:48:14.314Z,32.38
2022-08-04T16:50:50.725Z,32.19
2022-08-04T16:54:02.676Z,32.24
2022-08-04T16:56:08.961Z,32.21
2022-08-04T16:58:36.707Z,32.17
2022-08-04T17:01:32.666Z,32.13
2022-08-04T17:04:04.825Z,32.10
2022-08-04T17:06:41.498Z,32.04
2022-08-04T17:09:17.049Z,32.01
2022-08-04T17:11:45.035Z,31.99
2022-08-04T17:14:11.886Z,31.93
2022-08-04T17:16:42.272Z,31.86
2022-08-04T17:19:24.005Z,31.80
2022-08-04T17:22:02.318Z,31.78
2022-08-04T17:24:31.064Z,31.79
2022-08-04T17:26:58.406Z,31.71
2022-08-04T17:29:43.910Z,31.68
2022-08-04T17:32:21.543Z,31.67
2022-08-04T17:34:54.752Z,31.63
2022-08-04T17:37:40.252Z,31.59
2022-08-04T17:40:18.318Z,31.54
2022-08-04T17:42:50.914Z,31.51
2022-08-04T17:45:50.819Z,31.50
2022-08-04T17:48:09.550Z,31.46
2022-08-04T17:50:36.723Z,31.38
2022-08-04T17:53:11.103Z,31.32
2022-08-04T17:55:47.553Z,31.31
2022-08-04T17:58:23.100Z,31.27
2022-08-04T18:01:24.232Z,31.21
2022-08-04T18:03:53.214Z,31.11
2022-08-04T18:06:23.127Z,31.06
2022-08-04T18:08:57.600Z,31.03
2022-08-04T18:14:11.678Z,30.86
2022-08-04T18:16:45.351Z,30.81
2022-08-04T18:19:14.597Z,30.78
2022-08-04T18:21:46.822Z,30.73
2022-08-04T18:24:34.189Z,30.65
2022-08-04T18:27:03.323Z,30.58
2022-08-04T18:29:34.425Z,30.54
2022-08-04T18:32:07.035Z,30.46
2022-08-04T18:34:40.836Z,30.42
2022-08-04T18:38:06.033Z,30.33
2022-08-04T18:40:26.738Z,30.25
2022-08-04T18:42:56.664Z,30.18
2022-08-04T18:45:24.186Z,30.13
2022-08-04T18:48:01.869Z,30.02
2022-08-04T18:50:59.425Z,29.95
2022-08-04T18:53:16.516Z,29.93
2022-08-04T18:55:56.611Z,29.87
2022-08-04T18:58:27.108Z,29.84
2022-08-04T19:01:14.258Z,29.78
2022-08-04T19:03:44.198Z,29.60
2022-08-04T19:06:12.279Z,29.15
2022-08-04T19:08:42.188Z,28.84
2022-08-04T19:11:38.725Z,28.55
2022-08-04T19:13:58.683Z,28.34
2022-08-04T19:16:28.480Z,28.14
2022-08-04T19:18:56.044Z,28.03
2022-08-04T19:22:00.221Z,27.94
2022-08-04T19:24:32.214Z,27.84
2022-08-04T19:26:59.347Z,27.72
2022-08-04T19:29:26.026Z,27.58
2022-08-04T19:32:14.061Z,27.52
2022-08-04T19:34:46.250Z,27.45
2022-08-04T19:37:57.557Z,27.39
2022-08-04T19:40:08.021Z,27.23
2022-08-04T19:42:36.105Z,27.17
2022-08-04T19:45:03.166Z,27.19
2022-08-04T19:48:17.190Z,27.25
2022-08-04T19:50:16.851Z,27.33
2022-08-04T19:52:49.196Z,27.32
2022-08-04T19:55:37.081Z,27.31
2022-08-04T19:58:08.281Z,27.31
2022-08-04T20:00:37.807Z,27.29
2022-08-04T20:03:11.797Z,27.19
2022-08-04T20:05:53.733Z,27.05
2022-08-04T20:08:31.490Z,26.96
2022-08-04T20:10:59.396Z,26.92
2022-08-04T20:13:36.888Z,26.83
2022-08-04T20:16:28.239Z,26.80
2022-08-04T20:18:56.632Z,26.86
2022-08-04T20:21:55.755Z,26.90
2022-08-04T20:24:38.055Z,27.00
2022-08-04T20:26:59.525Z,27.12
2022-08-04T20:29:40.646Z,27.11
2022-08-04T20:32:09.853Z,26.95
2022-08-04T20:34:37.586Z,26.74
2022-08-04T20:37:06.936Z,26.55
2022-08-04T20:39:37.871Z,26.31
2022-08-04T20:42:07.287Z,26.08
2022-08-04T20:44:38.272Z,26.01
2022-08-04T20:47:09.035Z,25.99
2022-08-04T20:49:35.715Z,25.95
2022-08-04T20:52:14.751Z,26.01
2022-08-04T20:54:48.412Z,26.03
2022-08-04T20:57:16.635Z,26.07
2022-08-04T20:59:44.061Z,26.03
2022-08-04T21:02:26.739Z,26.07
2022-08-04T21:04:53.791Z,25.92
2022-08-04T21:07:22.206Z,25.73
2022-08-04T21:09:50.821Z,25.49
2022-08-04T21:12:27.768Z,25.32
2022-08-04T21:15:13.284Z,25.11
2022-08-04T21:17:58.930Z,24.91
2022-08-04T21:20:28.683Z,24.82
2022-08-04T21:22:59.885Z,24.80
2022-08-04T21:25:29.394Z,24.80
2022-08-04T21:27:58.732Z,24.79
2022-08-04T21:30:26.799Z,24.79
2022-08-04T21:32:55.366Z,24.78
2022-08-04T21:35:36.854Z,24.70
2022-08-04T21:38:17.663Z,24.62
2022-08-04T21:40:56.177Z,24.65
2022-08-04T21:43:27.111Z,24.63
2022-08-04T21:45:54.762Z,24.65
2022-08-04T21:48:21.471Z,24.59
2022-08-04T21:50:50.469Z,24.54
2022-08-04T21:53:19.822Z,24.56
2022-08-04T21:56:04.882Z,24.57
2022-08-04T21:58:36.238Z,24.54
2022-08-04T22:01:13.143Z,24.51
2022-08-04T22:03:53.243Z,24.46
2022-08-04T22:06:28.350Z,24.43
2022-08-04T22:08:56.269Z,24.35
2022-08-04T22:11:49.229Z,24.32
2022-08-04T22:14:27.606Z,24.29
2022-08-04T22:16:57.507Z,24.25
2022-08-04T22:19:39.815Z,24.20
2022-08-04T22:22:12.589Z,24.19
2022-08-04T22:24:51.855Z,24.18
2022-08-04T22:27:37.483Z,24.15
2022-08-04T22:30:17.290Z,24.11
2022-08-04T22:32:47.049Z,24.04
2022-08-04T22:35:33.296Z,23.94
2022-08-04T22:38:06.290Z,23.96
2022-08-04T22:40:38.331Z,23.90
2022-08-04T22:43:32.090Z,23.83
2022-08-04T22:45:51.786Z,23.72
2022-08-04T22:48:18.621Z,23.61
2022-08-04T22:50:45.388Z,23.59
2022-08-04T22:53:12.057Z,23.49
2022-08-04T22:56:06.384Z,23.40
2022-08-04T22:58:31.684Z,23.25
2022-08-04T23:00:58.669Z,23.20
2022-08-04T23:03:36.817Z,23.09
2022-08-04T23:06:07.173Z,23.19
2022-08-04T23:08:38.500Z,23.19
2022-08-04T23:11:09.745Z,23.15
2022-08-04T23:13:36.910Z,23.11
2022-08-04T23:16:05.761Z,23.09
2022-08-04T23:18:36.833Z,23.07
2022-08-04T23:21:09.206Z,23.09
2022-08-04T23:23:45.244Z,23.05
2022-08-04T23:26:27.365Z,23.02
2022-08-04T23:28:54.223Z,23.04
2022-08-04T23:31:20.961Z,22.99
2022-08-04T23:33:51.110Z,23.06
2022-08-04T23:36:19.431Z,23.09
2022-08-04T23:38:59.489Z,23.06
2022-08-04T23:41:55.292Z,23.05
2022-08-04T23:44:17.670Z,23.01
2022-08-04T23:47:00.162Z,22.99
2022-08-04T23:49:44.159Z,22.93
2022-08-04T23:52:28.203Z,22.93
2022-08-04T23:54:58.724Z,22.83
2022-08-04T23:57:30.922Z,22.81
